DATI METEO

IERI
Time Temp. P.to rug.. Umid. Direzion Velocità d Wind gust Press. 1h Prec. 24h Prec.
00:03 17.1 16.8 98 220 0.8 3.6 1012.2 0.0000 0.0000
00:14 17.1 16.8 98 225 0.8 2.8 1012.2 0.0000 0.0000
00:24 17.1 16.8 98 217 0.3 1.1 1012.2 0.0000 0.0000
00:34 17.1 16.8 98 213 0.3 1.7 1012.2 0.0000 0.0000
00:44 17 16.7 98 225 0.3 1.7 1012.2 0.0000 0.0000
00:55 17 16.7 98 225 0.3 1.1 1012.3 0.0000 0.0000
01:04 17 16.7 98 228 0.8 1.9 1012.3 0.0000 0.0000
01:14 17 16.7 98 233 0.3 1.7 1012.3 0.0000 0.0000
01:25 17 16.7 98 215 0.3 1.1 1012.3 0.0000 0.0000
01:35 17 16.7 98 227 0.8 1.9 1012.3 0.0000 0.0000
01:45 17 16.7 98 228 0.8 1.7 1012.2 0.0000 0.0000
01:54 17 16.7 98 225 0.3 2.8 1012.2 0.0000 0.0000
02:05 16.9 16.6 98 213 0.3 2.5 1012.2 0.0000 0.0000
02:15 16.9 16.6 98 229 0.3 1.7 1012.1 0.0000 0.0000
02:25 16.9 16.6 98 217 0.3 1.7 1012.1 0.0000 0.0000
02:35 16.9 16.6 98 217 0.3 1.9 1012.1 0.0000 0.0000
02:46 16.9 16.6 98 225 0.3 1.9 1012.1 0.0000 0.0000
02:55 16.8 16.5 98 229 0.8 3.3 1012 0.0000 0.0000
03:05 16.8 16.5 98 237 0.8 1.9 1011.9 0.0000 0.0000
03:16 16.8 16.5 98 218 0.8 1.7 1011.9 0.0000 0.0000
03:26 16.7 16.4 98 233 0.8 1.9 1011.8 0.0000 0.0000
03:36 16.7 16.4 98 227 0.8 2.8 1011.9 0.0000 0.0000
03:46 16.6 16.3 98 225 0.3 1.9 1011.8 0.0000 0.0000
03:56 16.6 16.3 98 233 0.8 1.9 1011.8 0.0000 0.0000
04:06 16.6 16.3 98 230 0.8 2.8 1011.7 0.0000 0.0000
04:16 16.5 16.2 98 225 0.8 1.9 1011.7 0.0000 0.0000
04:27 16.4 16.1 98 228 0.8 1.7 1011.7 0.0000 0.0000
04:37 16.4 16.1 98 237 0.8 3.3 1011.6 0.0000 0.0000
04:46 16.4 16.1 98 233 1.1 2.8 1011.6 0.0000 0.0000
04:56 16.3 16 98 233 1.1 4.2 1011.6 0.0000 0.0000
05:07 16.3 16 98 227 0.8 4.2 1011.6 0.0000 0.0000
05:17 16.3 16 98 230 0.8 2.5 1011.5 0.0000 0.0000
05:27 16.2 15.9 98 231 0.8 2.8 1011.5 0.0000 0.0000
05:37 16.2 15.9 98 230 0.8 2.5 1011.4 0.0000 0.0000
05:47 16.2 15.9 98 233 0.8 1.9 1011.4 0.0000 0.0000
05:57 16.2 15.9 98 225 0.8 2.5 1011.4 0.0000 0.0000
06:07 16.2 15.9 98 225 0.3 1.1 1011.5 0.0000 0.0000
06:18 16.2 15.9 98 230 0.8 2.5 1011.4 0.0000 0.0000
06:28 16.1 15.8 98 231 0.8 1.9 1011.4 0.0000 0.0000
06:37 16.1 15.8 98 217 0.3 2.5 1011.4 0.0000 0.0000
06:48 16.1 15.8 98 221 0.8 3.3 1011.4 0.0000 0.0000
06:58 16.1 15.8 98 229 0.8 1.7 1011.5 0.0000 0.0000
07:08 16.1 15.8 98 233 0.8 1.9 1011.5 0.0000 0.0000
07:18 16 15.7 98 225 0.3 1.7 1011.5 0.0000 0.0000
07:29 16 15.7 98 231 0.8 2.8 1011.6 0.0000 0.0000
07:37 15.9 15.6 98 225 0.8 1.9 1011.6 0.0000 0.0000
07:48 15.8 15.5 98 233 0.8 2.5 1011.7 0.0000 0.0000
07:58 15.8 15.5 98 225 0.8 3.3 1011.7 0.0000 0.0000
08:09 15.8 15.5 98 228 0.3 1.9 1011.7 0.0000 0.0000
08:19 15.8 15.5 98 225 0.8 2.5 1011.7 0.0000 0.0000
08:29 15.8 15.5 98 217 0.3 1.9 1011.8 0.0000 0.0000
08:39 15.8 15.5 98 225 0.3 1.7 1011.8 0.0000 0.0000
08:49 15.8 15.5 98 212 0.3 1.7 1011.7 0.0000 0.0000
08:59 15.8 15.5 98 222 0.8 1.9 1011.7 0.0000 0.0000
09:09 15.8 15.5 98 225 0.3 1.9 1011.7 0.0000 0.0000
09:20 15.8 15.5 98 161 0.3 0.8 1011.7 0.1010 0.1000
09:30 15.8 15.3 97 225 0.8 2.5 1011.8 0.1010 0.1000
09:39 15.8 15.3 97 215 0.3 1.9 1011.8 0.1010 0.1000
09:50 15.8 15.3 97 211 0.8 2.8 1011.8 0.1010 0.1000
10:00 15.9 15.4 97 220 1.1 2.5 1011.9 0.1010 0.1000
10:10 16 15.5 97 219 0.8 2.5 1012 0.1010 0.1000
10:20 16 15.5 97 215 0.8 1.9 1012 0.0000 0.1000
10:31 16.1 15.6 97 209 0.8 1.9 1011.9 0.0000 0.1000
10:40 16.1 15.6 97 221 0.8 2.5 1012 0.0000 0.1000
10:50 16.2 15.7 97 216 0.8 2.5 1012.1 0.0000 0.1000
11:00 16.2 15.7 97 205 0.8 4.2 1012 0.0000 0.1000
11:11 16.3 15.8 97 191 0.3 1.9 1011.9 0.0000 0.1000
11:21 16.4 15.9 97 172 0.8 1.9 1011.9 0.0000 0.1000
11:31 16.4 15.9 97 200 1.1 2.8 1011.9 0.0000 0.1000
11:41 16.4 16.1 98 207 1.1 3.6 1011.9 0.0000 0.1000
11:51 16.3 16 98 225 0.8 1.9 1011.9 0.0000 0.1000
12:01 16.4 16.1 98 213 0.8 1.9 1011.8 0.0000 0.1000
12:11 16.4 16.1 98 200 0.8 2.8 1011.8 0.0000 0.1000
12:22 16.4 16.1 98 199 1.1 3.6 1011.7 0.0000 0.1000
12:31 16.4 16.1 98 221 1.1 4.2 1011.7 0.0000 0.1000
12:41 16.4 16.1 98 220 1.1 2.8 1011.6 0.0000 0.1000
12:52 16.4 15.9 97 203 0.8 3.3 1011.6 0.0000 0.1000
13:02 16.4 16.1 98 198 0.8 2.5 1011.5 0.0000 0.1000
13:12 16.5 16 97 211 1.1 3.6 1011.4 0.0000 0.1000
13:22 16.5 15.9 96 209 1.1 2.5 1011.5 0.0000 0.1000
13:32 16.5 15.9 96 207 0.8 3.6 1011.4 0.0000 0.1000
13:42 16.5 15.9 96 167 0.3 1.7 1011.5 0.0000 0.1000
13:52 16.5 15.9 96 207 0.3 1.9 1011.4 0.0000 0.1000
14:02 16.5 15.9 96 186 0.3 1.9 1011.4 0.0000 0.1000
14:13 16.5 15.9 96 168 0.3 1.7 1011.3 0.0000 0.1000
14:22 16.5 15.9 96 183 0.3 1.1 1011.2 0.0000 0.1000
14:32 16.6 16.1 97 152 0.3 1.7 1011.3 0.0000 0.1000
14:43 16.6 16.1 97 163 0.3 1.7 1011.3 0.0000 0.1000
14:53 16.7 16.2 97 166 0.8 2.8 1011.3 0.0000 0.1000
15:03 16.8 16.2 96 225 0.8 2.5 1011.3 0.0000 0.1000
15:13 16.8 16.2 96 163 0.8 1.9 1011.3 0.0000 0.1000
15:23 16.8 16 95 140 0.3 1.7 1011.2 0.0000 0.1000
15:43 16.9 15.8 93 131 0.8 2.5 1011.2 0.0000 0.1000
15:54 16.9 15.8 93 142 0.8 3.3 1011.1 0.0000 0.1000
16:04 17 15.9 93 188 0.8 1.9 1011.2 0.0000 0.1000
16:14 17 15.5 91 172 1.1 2.5 1011.2 0.0000 0.1000
16:23 17 15.7 92 172 0.3 1.7 1011.1 0.0000 0.1000
16:34 17.1 15.8 92 177 0.8 1.9 1011.1 0.0000 0.1000
16:44 17.1 15.8 92 145 0.3 1.1 1011.1 0.0000 0.1000
16:54 17.1 15.8 92 174 0.8 1.9 1011.1 0.0000 0.1000
17:04 17.2 15.7 91 180 0.3 1.7 1011.2 0.0000 0.1000
17:15 17.2 15.7 91 135 0.3 1.9 1011.1 0.0000 0.1000
17:24 17.2 15.9 92 135 0.3 1.7 1011.1 0.0000 0.1000
17:34 17.2 15.7 91 149 0.3 1.7 1011.1 0.0000 0.1000
17:45 17.1 15.6 91 135 0.8 2.8 1011.1 0.0000 0.1000
17:55 17.1 15.6 91 167 0.3 1.7 1011.1 0.0000 0.1000
18:05 17.1 15.6 91 153 0.3 1.7 1011.2 0.0000 0.1000
18:15 17 15.9 93 135 0.3 1.1 1011.3 0.0000 0.1000
18:25 17 15.7 92 135 0.3 0.8 1011.3 0.0000 0.1000
18:35 17 15.9 93 90 0.3 0.8 1011.3 0.0000 0.1000
18:45 16.9 15.9 94 168 0.3 1.1 1011.4 0.0000 0.1000
18:56 16.9 16.1 95 155 0.3 1.1 1011.3 0.0000 0.1000
19:06 16.9 16.3 96 180 0.3 1.1 1011.3 0.0000 0.1000
19:16 16.8 16 95 146 0.3 1.7 1011.3 0.0000 0.1000
19:25 16.7 15.9 95 161 0.3 1.1 1011.3 0.0000 0.1000
19:36 16.7 16.1 96 153 0.3 1.1 1011.2 0.0000 0.1000
19:46 16.6 16 96 180 0.3 1.1 1011.3 0.0000 0.1000
19:56 16.6 16.1 97 220 0.3 1.7 1011.3 0.0000 0.1000
20:06 16.6 16.1 97 192 0.3 1.7 1011.3 0.0000 0.1000
20:16 16.6 16.3 98 219 0.3 1.1 1011.4 0.0000 0.1000
20:26 16.5 16.2 98 158 0.3 1.1 1011.4 0.0000 0.1000
20:36 16.5 16.2 98 189 0.3 0.8 1011.5 0.0000 0.1000
20:47 16.5 16.2 98 171 0.3 1.1 1011.6 0.0000 0.1000
20:57 16.4 16.1 98 213 0.3 1.1 1011.5 0.0000 0.1000
21:06 16.4 16.1 98 206 0.3 1.1 1011.5 0.0000 0.1000
21:17 16.4 16.1 98 194 0.3 1.7 1011.6 0.0000 0.1000
21:27 16.3 16 98 170 0.3 1.1 1011.5 0.0000 0.1000
21:37 16.3 16 98 180 0.3 1.1 1011.6 0.0000 0.1000
21:47 16.3 16 98 156 0.3 1.1 1011.6 0.0000 0.1000
21:58 16.2 15.7 97 150 0.3 1.1 1011.5 0.0000 0.1000
22:06 16.1 15.6 97 168 0.3 1.1 1011.5 0.0000 0.1000
22:17 16 15.5 97 0 0.8 1011.5 0.0000 0.1000
22:27 16 15.4 96 191 0.3 0.8 1011.6 0.0000 0.1000
22:38 15.9 15.4 97 90 0.3 0.8 1011.6 0.0000 0.1000
22:48 15.9 15.6 98 90 0.3 1.1 1011.7 0.0000 0.1000
22:58 15.9 15.6 98 90 0.3 0.8 1011.7 0.0000 0.1000
23:08 15.9 15.6 98 126 0.3 1.1 1011.9 0.0000 0.1000
23:18 15.8 15.3 97 90 0.3 1.1 1011.9 0.0000 0.1000
23:28 15.8 15.5 98 135 0.3 1.1 1011.8 0.0000 0.1000
23:38 15.9 15.6 98 127 0.3 1.7 1011.9 0.0000 0.1000
23:49 15.9 15.6 98 90 0.3 1.1 1011.9 0.0000 0.1000

STATISTICHE GIORNALIERE

2021-09-17
TEMPERATURA
MEDIA
16.5
MASSIMA
17.2
17:04
MINIMA
15.8
07:48
PRESSIONE
MEDIA
1011.6
MASSIMA
1012.3
00:55
MINIMA
1011.1
15:54
PUNTO DI RUGIADA
MEDIA
16.0
MASSIMA
16.8
00:03
MINIMA
15.3
09:30
UMIDITÀ
MEDIA
97
MASSIMA
98
00:03
MINIMA
91
16:14
VELOCITÀ DEL VENTO
MEDIA
0.6
MASSIMA
1.1
04:46
WIND GUST
MEDIA
2.0
MASSIMA
4.2
04:56
DIREZIONE DEL VENTO
PREVALENTE
SO
56%
N
0.0
NE
0.0
E
4.3
SE
14.2
S
24.8
SO
56.0
O
0.0
NO
0.0
PRECIPITAZIONI
ORA DI PIOGGIA
0.1
GIORNO DI PIOGGIA
0.1
TEMPERATURA (°C)
MINIMA
15.8
MASSIMA
17.2
MEDIA
16.5
PRESSIONE (hpa)
MINIMA
1011.1
MASSIMA
1012.3
MEDIA
1011.6
DEVICE